createdAt,value
2022-09-24T00:00:08.194Z,7.8
2022-09-24T00:01:10.724Z,7.9
2022-09-24T00:02:08.222Z,7.9
2022-09-24T00:03:08.210Z,7.8
2022-09-24T00:04:08.241Z,7.8
2022-09-24T00:05:08.126Z,7.8
2022-09-24T00:06:08.131Z,7.8
2022-09-24T00:07:08.177Z,7.8
2022-09-24T00:08:08.153Z,7.6
2022-09-24T00:09:08.126Z,7.7
2022-09-24T00:10:08.144Z,7.8
2022-09-24T00:11:08.164Z,7.8
2022-09-24T00:12:08.151Z,7.7
2022-09-24T00:13:08.142Z,7.7
2022-09-24T00:14:08.269Z,7.7
2022-09-24T00:15:08.130Z,7.8
2022-09-24T00:16:08.265Z,7.8
2022-09-24T00:17:08.137Z,7.7
2022-09-24T00:18:08.137Z,7.8
2022-09-24T00:19:08.157Z,7.8
2022-09-24T00:20:08.139Z,7.8
2022-09-24T00:21:08.140Z,7.8
2022-09-24T00:22:08.148Z,7.8
2022-09-24T00:23:08.138Z,7.7
2022-09-24T00:24:08.227Z,7.7
2022-09-24T00:25:08.143Z,7.7
2022-09-24T00:26:08.141Z,7.7
2022-09-24T00:27:08.137Z,7.8
2022-09-24T00:28:08.140Z,7.8
2022-09-24T00:29:08.144Z,7.8
2022-09-24T00:30:08.130Z,7.7
2022-09-24T00:31:08.213Z,7.7
2022-09-24T00:32:08.149Z,7.7
2022-09-24T00:33:08.145Z,7.8
2022-09-24T00:34:08.274Z,7.8
2022-09-24T00:35:08.138Z,7.7
2022-09-24T00:36:08.146Z,7.8
2022-09-24T00:37:08.132Z,7.8
2022-09-24T00:38:08.151Z,7.7
2022-09-24T00:39:08.143Z,7.7
2022-09-24T00:40:08.195Z,7.8
2022-09-24T00:41:08.138Z,7.7
2022-09-24T00:42:08.176Z,7.7
2022-09-24T00:43:08.128Z,7.7
2022-09-24T00:44:08.193Z,7.8
2022-09-24T00:45:08.140Z,7.9
2022-09-24T00:46:08.142Z,7.7
2022-09-24T00:47:08.215Z,7.7
2022-09-24T00:48:27.628Z,7.7
2022-09-24T00:49:08.137Z,7.8
2022-09-24T00:50:08.293Z,7.7
2022-09-24T00:51:08.156Z,7.7
2022-09-24T00:52:08.141Z,7.6
2022-09-24T00:53:08.135Z,7.7
2022-09-24T00:54:08.195Z,7.6
2022-09-24T00:55:08.163Z,7.7
2022-09-24T00:56:08.156Z,7.6
2022-09-24T00:57:08.134Z,7.6
2022-09-24T00:58:08.148Z,7.7
2022-09-24T00:59:08.152Z,7.6
2022-09-24T01:00:08.149Z,7.7
2022-09-24T01:01:08.242Z,7.8
2022-09-24T01:02:08.215Z,7.8
2022-09-24T01:03:08.148Z,7.7
2022-09-24T01:04:08.183Z,7.6
2022-09-24T01:05:08.143Z,7.7
2022-09-24T01:06:08.132Z,7.8
2022-09-24T01:07:08.148Z,7.8
2022-09-24T01:08:08.152Z,7.8
2022-09-24T01:09:08.141Z,7.7
2022-09-24T01:10:08.132Z,7.7
2022-09-24T01:11:08.144Z,7.8
2022-09-24T01:12:08.151Z,7.8
2022-09-24T01:13:08.180Z,7.7
2022-09-24T01:14:08.197Z,7.7
2022-09-24T01:15:08.142Z,7.8
2022-09-24T01:16:08.192Z,7.8
2022-09-24T01:17:08.137Z,7.7
2022-09-24T01:18:08.140Z,7.7
2022-09-24T01:19:08.146Z,7.6
2022-09-24T01:20:08.174Z,7.7
2022-09-24T01:21:08.155Z,7.6
2022-09-24T01:22:08.153Z,7.6
2022-09-24T01:23:08.165Z,7.6
2022-09-24T01:24:08.191Z,7.6
2022-09-24T01:25:08.154Z,7.7
2022-09-24T01:26:08.185Z,7.6
2022-09-24T01:27:08.169Z,7.6
2022-09-24T01:28:08.163Z,7.5
2022-09-24T01:29:08.155Z,7.5
2022-09-24T01:30:08.138Z,7.4
2022-09-24T01:31:08.233Z,7.5
2022-09-24T01:32:08.137Z,7.5
2022-09-24T01:33:08.142Z,7.6
2022-09-24T01:34:08.151Z,7.5
2022-09-24T01:35:08.148Z,7.6
2022-09-24T01:36:08.163Z,7.6
2022-09-24T01:37:08.151Z,7.5
2022-09-24T01:38:08.142Z,7.5
2022-09-24T01:39:08.157Z,7.5
2022-09-24T01:40:08.246Z,7.5
2022-09-24T01:41:08.167Z,7.6
2022-09-24T01:42:08.146Z,7.6
2022-09-24T01:43:08.160Z,7.5
2022-09-24T01:44:08.165Z,7.5
2022-09-24T01:45:08.136Z,7.5
2022-09-24T01:46:08.214Z,7.5
2022-09-24T01:47:08.156Z,7.5
2022-09-24T01:48:02.638Z,7.5
2022-09-24T01:49:08.145Z,7.5
2022-09-24T01:50:08.161Z,7.5
2022-09-24T01:51:08.154Z,7.4
2022-09-24T01:52:08.146Z,7.4
2022-09-24T01:53:08.166Z,7.4
2022-09-24T01:54:08.290Z,7.5
2022-09-24T01:55:08.151Z,7.4
2022-09-24T01:56:08.175Z,7.4
2022-09-24T01:57:08.145Z,7.5
2022-09-24T01:58:08.179Z,7.4
2022-09-24T01:59:08.169Z,7.4
2022-09-24T02:00:08.161Z,7.5
2022-09-24T02:01:08.280Z,7.4
2022-09-24T02:02:08.174Z,7.3
2022-09-24T02:03:08.159Z,7.4
2022-09-24T02:04:08.244Z,7.5
2022-09-24T02:05:08.151Z,7.5
2022-09-24T02:06:08.159Z,7.4
2022-09-24T02:07:08.153Z,7.4
2022-09-24T02:08:08.165Z,7.4
2022-09-24T02:09:08.138Z,7.4
2022-09-24T02:10:08.135Z,7.4
2022-09-24T02:11:08.150Z,7.4
2022-09-24T02:12:08.140Z,7.3
2022-09-24T02:13:08.165Z,7.3
2022-09-24T02:14:08.156Z,7.4
2022-09-24T02:15:08.171Z,7.4
2022-09-24T02:16:08.210Z,7.4
2022-09-24T02:17:08.163Z,7.4
2022-09-24T02:18:08.172Z,7.4
2022-09-24T02:19:08.138Z,7.4
2022-09-24T02:20:08.156Z,7.3
2022-09-24T02:22:08.235Z,7.4
2022-09-24T02:24:08.284Z,7.3
2022-09-24T02:25:08.152Z,7.3
2022-09-24T02:26:08.151Z,7.2
2022-09-24T02:27:08.158Z,7.3
2022-09-24T02:28:08.144Z,7.2
2022-09-24T02:29:08.158Z,7.2
2022-09-24T02:30:08.163Z,7.3
2022-09-24T02:31:08.274Z,7.2
2022-09-24T02:32:08.157Z,7.2
2022-09-24T02:33:08.143Z,7.3
2022-09-24T02:34:08.178Z,7.2
2022-09-24T02:35:08.151Z,7.2
2022-09-24T02:36:08.152Z,7.2
2022-09-24T02:38:08.142Z,7.1
2022-09-24T02:39:08.147Z,7.3
2022-09-24T02:40:08.232Z,7.2
2022-09-24T02:41:08.160Z,7.2
2022-09-24T02:42:08.167Z,7.2
2022-09-24T02:43:08.148Z,7.2
2022-09-24T02:44:08.188Z,7.2
2022-09-24T02:45:08.152Z,7.2
2022-09-24T02:46:08.234Z,7.3
2022-09-24T02:47:08.142Z,7.3
2022-09-24T02:48:08.159Z,7.3
2022-09-24T02:49:08.151Z,7.3
2022-09-24T02:50:08.143Z,7.2
2022-09-24T02:51:08.136Z,7.2
2022-09-24T02:52:08.155Z,7.2
2022-09-24T02:53:08.142Z,7.3
2022-09-24T02:54:08.259Z,7.2
2022-09-24T02:55:08.143Z,7.2
2022-09-24T02:56:08.144Z,7.2
2022-09-24T02:57:08.154Z,7.2
2022-09-24T02:58:08.161Z,7.3
2022-09-24T02:59:08.144Z,7.2
2022-09-24T03:00:08.175Z,7.2
2022-09-24T03:01:08.169Z,7.1
2022-09-24T03:02:08.293Z,7.2
2022-09-24T03:03:08.297Z,7.3
2022-09-24T03:04:08.246Z,7.2
2022-09-24T03:05:08.163Z,7.2
2022-09-24T03:06:08.160Z,7.2
2022-09-24T03:07:08.155Z,7.3
2022-09-24T03:08:08.157Z,7.2
2022-09-24T03:09:08.151Z,7.2
2022-09-24T03:10:08.165Z,7.2
2022-09-24T03:11:08.158Z,7.2
2022-09-24T03:12:08.168Z,7.2
2022-09-24T03:13:08.142Z,7.2
2022-09-24T03:14:08.273Z,7.2
2022-09-24T03:15:08.156Z,7.2
2022-09-24T03:16:08.221Z,7.1
2022-09-24T03:17:08.187Z,7.3
2022-09-24T03:18:08.158Z,7.2
2022-09-24T03:19:08.158Z,7.2
2022-09-24T03:20:08.174Z,7.2
2022-09-24T03:21:08.144Z,7.2
2022-09-24T03:22:08.162Z,7.2
2022-09-24T03:23:08.161Z,7.3
2022-09-24T03:24:08.286Z,7.3
2022-09-24T03:25:08.193Z,7.3
2022-09-24T03:26:08.148Z,7.3
2022-09-24T03:27:08.163Z,7.4
2022-09-24T03:29:08.149Z,7.4
2022-09-24T03:30:08.165Z,7.4
2022-09-24T03:31:08.239Z,7.3
2022-09-24T03:32:08.142Z,7.3
2022-09-24T03:33:08.146Z,7.3
2022-09-24T03:34:08.236Z,7.3
2022-09-24T03:35:08.159Z,7.2
2022-09-24T03:36:08.169Z,7.2
2022-09-24T03:37:08.151Z,7.2
2022-09-24T03:38:08.165Z,7.3
2022-09-24T03:39:08.158Z,7.3
2022-09-24T03:40:08.309Z,7.3
2022-09-24T03:41:08.178Z,7.3
2022-09-24T03:42:08.138Z,7.2
2022-09-24T03:43:08.160Z,7.2
2022-09-24T03:44:08.146Z,7.2
2022-09-24T03:45:08.158Z,7.3
2022-09-24T03:46:08.291Z,7.3
2022-09-24T03:47:08.155Z,7.2
2022-09-24T03:48:08.175Z,7.3
2022-09-24T03:49:08.149Z,7.3
2022-09-24T03:50:08.167Z,7.3
2022-09-24T03:51:08.157Z,7.3
2022-09-24T03:52:08.163Z,7.4
2022-09-24T03:53:08.146Z,7.4
2022-09-24T03:54:08.292Z,7.4
2022-09-24T03:55:08.182Z,7.3
2022-09-24T03:56:08.152Z,7.3
2022-09-24T03:57:08.173Z,7.2
2022-09-24T03:58:08.157Z,7.2
2022-09-24T03:59:08.149Z,7.2
2022-09-24T04:00:08.158Z,7.3
2022-09-24T04:01:08.165Z,7.3
2022-09-24T04:02:08.218Z,7.3
2022-09-24T04:03:08.200Z,7.3
2022-09-24T04:04:08.237Z,7.3
2022-09-24T04:05:08.163Z,7.3
2022-09-24T04:06:08.158Z,7.3
2022-09-24T04:07:08.166Z,7.3
2022-09-24T04:08:08.158Z,7.3
2022-09-24T04:09:08.169Z,7.3
2022-09-24T04:10:08.170Z,7.3
2022-09-24T04:11:08.167Z,7.3
2022-09-24T04:12:08.145Z,7.3
2022-09-24T04:13:08.197Z,7.2
2022-09-24T04:14:08.221Z,7.2
2022-09-24T04:15:08.158Z,7.2
2022-09-24T04:16:08.199Z,7.2
2022-09-24T04:17:08.157Z,7.2
2022-09-24T04:18:08.145Z,7.2
2022-09-24T04:19:08.192Z,7.2
2022-09-24T04:20:08.181Z,7.3
2022-09-24T04:21:08.161Z,7.3
2022-09-24T04:22:08.151Z,7.3
2022-09-24T04:23:08.158Z,7.2
2022-09-24T04:24:08.167Z,7.2
2022-09-24T04:25:12.624Z,7.2
2022-09-24T04:26:08.169Z,7.2
2022-09-24T04:27:08.191Z,7.3
2022-09-24T04:28:08.153Z,7.3
2022-09-24T04:29:08.161Z,7.3
2022-09-24T04:30:08.155Z,7.3
2022-09-24T04:31:08.237Z,7.4
2022-09-24T04:33:08.145Z,7.4
2022-09-24T04:34:08.271Z,7.4
2022-09-24T04:35:08.163Z,7.3
2022-09-24T04:36:08.162Z,7.4
2022-09-24T04:37:08.156Z,7.3
2022-09-24T04:38:08.165Z,7.3
2022-09-24T04:39:08.162Z,7.2
2022-09-24T04:40:08.199Z,7.2
2022-09-24T04:41:08.172Z,7.3
2022-09-24T04:42:08.162Z,7.2
2022-09-24T04:43:08.166Z,7.2
2022-09-24T04:44:08.218Z,7.3
2022-09-24T04:45:08.163Z,7.2
2022-09-24T04:46:08.216Z,7.2
2022-09-24T04:47:08.162Z,7.2
2022-09-24T04:48:08.151Z,7.1
2022-09-24T04:49:08.195Z,7.3
2022-09-24T04:50:08.189Z,7.3
2022-09-24T04:51:08.159Z,7.4
2022-09-24T04:52:08.152Z,7.3
2022-09-24T04:53:08.176Z,7.2
2022-09-24T04:54:08.161Z,7.2
2022-09-24T04:55:08.174Z,7.2
2022-09-24T04:56:08.149Z,7.1
2022-09-24T04:57:08.164Z,7.2
2022-09-24T04:58:08.162Z,7.2
2022-09-24T04:59:08.228Z,7.2
2022-09-24T05:00:08.163Z,7.2
2022-09-24T05:01:08.151Z,7.2
2022-09-24T05:02:09.634Z,7.2
2022-09-24T05:03:08.218Z,7.2
2022-09-24T05:04:08.157Z,7.1
2022-09-24T05:05:08.167Z,7.1
2022-09-24T05:06:08.175Z,7.1
2022-09-24T05:07:08.150Z,7.1
2022-09-24T05:08:08.169Z,7.1
2022-09-24T05:09:12.424Z,7.1
2022-09-24T05:10:08.171Z,7.1
2022-09-24T05:11:08.165Z,7.1
2022-09-24T05:12:08.176Z,7.1
2022-09-24T05:13:08.169Z,7.1
2022-09-24T05:14:08.158Z,7.1
2022-09-24T05:15:08.164Z,7.1
2022-09-24T05:16:08.229Z,7.2
2022-09-24T05:17:08.167Z,7.1
2022-09-24T05:18:08.158Z,7
2022-09-24T05:19:08.162Z,7
2022-09-24T05:20:08.164Z,7.1
2022-09-24T05:21:08.184Z,7.1
2022-09-24T05:22:08.170Z,7.1
2022-09-24T05:23:08.159Z,7.1
2022-09-24T05:24:08.185Z,7.1
2022-09-24T05:25:08.162Z,7.2
2022-09-24T05:26:08.157Z,7.2
2022-09-24T05:27:08.170Z,7.1
2022-09-24T05:28:08.177Z,7.2
2022-09-24T05:29:08.284Z,7.2
2022-09-24T05:30:08.151Z,7.1
2022-09-24T05:31:08.281Z,7.1
2022-09-24T05:32:08.165Z,7.2
2022-09-24T05:33:08.170Z,7.2
2022-09-24T05:34:08.163Z,7.2
2022-09-24T05:35:08.173Z,7.2
2022-09-24T05:36:08.162Z,7.2
2022-09-24T05:37:08.170Z,7.2
2022-09-24T05:38:08.176Z,7.2
2022-09-24T05:39:08.272Z,7.2
2022-09-24T05:40:08.207Z,7.2
2022-09-24T05:41:08.159Z,7.2
2022-09-24T05:42:08.173Z,7.1
2022-09-24T05:43:08.162Z,7.1
2022-09-24T05:44:08.164Z,7.1
2022-09-24T05:45:08.168Z,7.1
2022-09-24T05:46:08.282Z,7.2
2022-09-24T05:47:08.165Z,7.2
2022-09-24T05:48:08.168Z,7.2
2022-09-24T05:49:08.155Z,7.2
2022-09-24T05:50:08.174Z,7.3
2022-09-24T05:51:08.184Z,7.3
2022-09-24T05:52:08.202Z,7.2
2022-09-24T05:53:08.164Z,7.2
2022-09-24T05:54:08.177Z,7.2
2022-09-24T05:55:08.165Z,7.2
2022-09-24T05:56:08.223Z,7.2
2022-09-24T05:57:08.194Z,7.2
2022-09-24T05:58:08.182Z,7.2
2022-09-24T05:59:08.203Z,7.2
2022-09-24T06:00:08.171Z,7.2
2022-09-24T06:01:08.223Z,7.3
2022-09-24T06:02:08.267Z,7.3
2022-09-24T06:03:08.367Z,7.3
2022-09-24T06:04:09.290Z,7.4
2022-09-24T06:05:08.157Z,7.3
2022-09-24T06:06:08.168Z,7.2
2022-09-24T06:07:08.189Z,7.2
2022-09-24T06:08:08.204Z,7.2
2022-09-24T06:09:08.326Z,7.2
2022-09-24T06:10:08.191Z,7.2
2022-09-24T06:11:08.173Z,7.3
2022-09-24T06:12:08.166Z,7.3
2022-09-24T06:13:08.182Z,7.3
2022-09-24T06:14:08.170Z,7.4
2022-09-24T06:15:08.163Z,7.3
2022-09-24T06:16:08.234Z,7.5
2022-09-24T06:17:08.178Z,7.4
2022-09-24T06:18:08.169Z,7.4
2022-09-24T06:19:08.329Z,7.4
2022-09-24T06:20:08.257Z,7.4
2022-09-24T06:21:08.271Z,7.4
2022-09-24T06:22:08.189Z,7.4
2022-09-24T06:23:08.197Z,7.5
2022-09-24T06:24:08.167Z,7.5
2022-09-24T06:25:08.210Z,7.5
2022-09-24T06:26:08.169Z,7.5
2022-09-24T06:27:08.170Z,7.5
2022-09-24T06:28:08.174Z,7.6
2022-09-24T06:29:08.351Z,7.6
2022-09-24T06:30:08.191Z,7.6
2022-09-24T06:31:08.217Z,7.6
2022-09-24T06:32:08.177Z,7.6
2022-09-24T06:33:08.180Z,7.6
2022-09-24T06:34:08.182Z,7.6
2022-09-24T06:35:08.167Z,7.6
2022-09-24T06:36:08.168Z,7.6
2022-09-24T06:37:08.204Z,7.6
2022-09-24T06:38:08.169Z,7.6
2022-09-24T06:39:08.232Z,7.6
2022-09-24T06:40:08.272Z,7.6
2022-09-24T06:41:08.367Z,7.6
2022-09-24T06:42:08.170Z,7.6
2022-09-24T06:43:08.173Z,7.6
2022-09-24T06:44:08.166Z,7.7
2022-09-24T06:45:08.169Z,7.7
2022-09-24T06:46:08.196Z,7.7
2022-09-24T06:47:08.170Z,7.7
2022-09-24T06:48:08.160Z,7.6
2022-09-24T06:49:08.286Z,7.6
2022-09-24T06:50:08.242Z,7.6
2022-09-24T06:51:08.251Z,7.8
2022-09-24T06:52:08.168Z,7.6
2022-09-24T06:53:08.181Z,7.7
2022-09-24T06:54:08.182Z,7.8
2022-09-24T06:55:08.174Z,7.8
2022-09-24T06:56:08.168Z,7.8
2022-09-24T06:57:08.170Z,7.9
2022-09-24T06:58:08.172Z,7.9
2022-09-24T06:59:08.281Z,7.9
2022-09-24T07:00:08.173Z,7.9
2022-09-24T07:01:08.227Z,7.9
2022-09-24T07:02:08.306Z,7.7
2022-09-24T07:03:08.187Z,7.9
2022-09-24T07:04:08.160Z,7.8
2022-09-24T07:05:08.168Z,7.8
2022-09-24T07:06:08.173Z,7.8
2022-09-24T07:07:08.248Z,7.9
2022-09-24T07:08:08.173Z,7.7
2022-09-24T07:09:08.257Z,7.7
2022-09-24T07:10:08.174Z,7.7
2022-09-24T07:11:08.182Z,7.7
2022-09-24T07:12:08.183Z,7.8
2022-09-24T07:13:08.163Z,7.9
2022-09-24T07:14:08.173Z,7.8
2022-09-24T07:15:08.180Z,7.7
2022-09-24T07:16:08.232Z,7.6
2022-09-24T07:17:08.175Z,7.7
2022-09-24T07:18:08.202Z,7.7
2022-09-24T07:19:08.280Z,7.7
2022-09-24T07:20:08.193Z,7.7
2022-09-24T07:21:08.171Z,7.8
2022-09-24T07:22:08.168Z,7.8
2022-09-24T07:23:08.166Z,7.8
2022-09-24T07:24:08.173Z,7.8
2022-09-24T07:25:08.198Z,7.9
2022-09-24T07:26:08.201Z,7.8
2022-09-24T07:27:08.177Z,7.9
2022-09-24T07:28:08.231Z,7.9
2022-09-24T07:29:08.277Z,7.8
2022-09-24T07:30:08.173Z,7.6
2022-09-24T07:31:08.206Z,7.7
2022-09-24T07:33:08.202Z,7.9
2022-09-24T07:34:08.337Z,7.8
2022-09-24T07:35:08.165Z,7.8
2022-09-24T07:36:08.165Z,7.8
2022-09-24T07:37:08.184Z,7.6
2022-09-24T07:38:08.192Z,7.8
2022-09-24T07:39:08.169Z,7.8
2022-09-24T07:40:08.277Z,7.8
2022-09-24T07:41:08.178Z,7.8
2022-09-24T07:42:08.177Z,7.9
2022-09-24T07:43:08.184Z,7.8
2022-09-24T07:44:08.286Z,7.9
2022-09-24T07:45:08.170Z,7.9
2022-09-24T07:46:08.240Z,8
2022-09-24T07:47:10.998Z,7.9
2022-09-24T07:48:08.207Z,7.8
2022-09-24T07:49:08.180Z,7.8
2022-09-24T07:50:09.195Z,7.8
2022-09-24T07:51:08.253Z,7.9
2022-09-24T07:52:08.176Z,7.9
2022-09-24T07:53:08.172Z,7.9
2022-09-24T07:54:08.294Z,7.9
2022-09-24T07:55:08.207Z,8
2022-09-24T07:56:08.191Z,7.9
2022-09-24T07:57:08.175Z,8
2022-09-24T07:58:08.185Z,8
2022-09-24T07:59:08.165Z,7.9
2022-09-24T08:00:08.178Z,7.9
2022-09-24T08:01:08.181Z,8
2022-09-24T08:02:08.233Z,8
2022-09-24T08:03:08.177Z,8
2022-09-24T08:04:08.427Z,7.9
2022-09-24T08:05:08.175Z,8
2022-09-24T08:06:08.177Z,8
2022-09-24T08:07:08.171Z,8
2022-09-24T08:08:08.192Z,8.1
2022-09-24T08:09:08.177Z,8.1
2022-09-24T08:10:08.171Z,8.1
2022-09-24T08:11:08.180Z,8.1
2022-09-24T08:12:08.194Z,8.1
2022-09-24T08:13:08.174Z,8
2022-09-24T08:14:08.292Z,8.1
2022-09-24T08:15:08.203Z,8.2
2022-09-24T08:16:08.335Z,8.2
2022-09-24T08:17:08.179Z,8
2022-09-24T08:18:08.188Z,7.9
2022-09-24T08:19:08.188Z,8.1
2022-09-24T08:20:08.182Z,8.2
2022-09-24T08:21:08.194Z,8.1
2022-09-24T08:22:08.191Z,8.2
2022-09-24T08:23:08.190Z,8.2
2022-09-24T08:24:08.265Z,8.3
2022-09-24T08:25:08.198Z,8.2
2022-09-24T08:26:08.191Z,8.2
2022-09-24T08:27:08.215Z,8.3
2022-09-24T08:28:08.176Z,8.3
2022-09-24T08:29:09.200Z,8.4
2022-09-24T08:30:08.215Z,8.5
2022-09-24T08:31:08.232Z,8.3
2022-09-24T08:32:08.177Z,8.4
2022-09-24T08:33:08.181Z,8.4
2022-09-24T08:34:08.256Z,8.6
2022-09-24T08:35:08.181Z,8.6
2022-09-24T08:36:08.188Z,8.7
2022-09-24T08:37:08.203Z,8.7
2022-09-24T08:38:08.190Z,8.6
2022-09-24T08:39:08.208Z,8.7
2022-09-24T08:40:08.244Z,8.7
2022-09-24T08:41:08.184Z,8.7
2022-09-24T08:42:08.203Z,8.7
2022-09-24T08:43:08.176Z,8.5
2022-09-24T08:44:08.364Z,8.5
2022-09-24T08:45:08.197Z,8.6
2022-09-24T08:46:08.271Z,8.5
2022-09-24T08:47:08.178Z,8.4
2022-09-24T08:48:08.175Z,8.4
2022-09-24T08:50:08.183Z,8.4
2022-09-24T08:51:08.190Z,8.4
2022-09-24T08:52:08.192Z,8.4
2022-09-24T08:53:08.189Z,8.5
2022-09-24T08:54:08.299Z,8.6
2022-09-24T08:55:08.181Z,8.3
2022-09-24T08:56:08.177Z,8.4
2022-09-24T08:57:08.195Z,8.5
2022-09-24T08:58:08.299Z,8.6
2022-09-24T08:59:08.175Z,8.5
2022-09-24T09:00:08.197Z,8.6
2022-09-24T09:01:08.184Z,8.7
2022-09-24T09:02:08.306Z,8.7
2022-09-24T09:03:08.320Z,8.8
2022-09-24T09:04:08.241Z,8.8
2022-09-24T09:05:08.201Z,8.9
2022-09-24T09:06:08.196Z,8.8
2022-09-24T09:07:08.193Z,8.6
2022-09-24T09:08:27.350Z,8.6
2022-09-24T09:09:08.216Z,8.7
2022-09-24T09:10:08.211Z,8.8
2022-09-24T09:11:08.214Z,8.7
2022-09-24T09:12:08.182Z,8.9
2022-09-24T09:14:08.196Z,8.9
2022-09-24T09:15:08.200Z,8.9
2022-09-24T09:16:08.279Z,8.9
2022-09-24T09:17:08.255Z,8.9
2022-09-24T09:18:08.196Z,8.9
2022-09-24T09:19:08.343Z,8.9
2022-09-24T09:20:08.188Z,8.9
2022-09-24T09:21:08.205Z,9.1
2022-09-24T09:22:08.206Z,9.1
2022-09-24T09:23:08.192Z,9.1
2022-09-24T09:24:08.218Z,9.1
2022-09-24T09:25:08.192Z,9
2022-09-24T09:26:08.195Z,8.8
2022-09-24T09:27:08.184Z,8.9
2022-09-24T09:28:08.192Z,9
2022-09-24T09:29:15.215Z,9.1
2022-09-24T09:30:13.939Z,9.1
2022-09-24T09:31:08.436Z,9.1
2022-09-24T09:32:08.193Z,9.1
2022-09-24T09:33:08.193Z,9.2
2022-09-24T09:34:08.311Z,9.1
2022-09-24T09:35:08.196Z,9.1
2022-09-24T09:36:08.199Z,9.1
2022-09-24T09:37:08.184Z,8.9
2022-09-24T09:38:08.196Z,9
2022-09-24T09:39:08.304Z,9
2022-09-24T09:40:08.260Z,9.1
2022-09-24T09:41:08.376Z,9.1
2022-09-24T09:42:08.198Z,9.1
2022-09-24T09:43:08.205Z,9.1
2022-09-24T09:44:08.229Z,9.1
2022-09-24T09:45:08.212Z,9.1
2022-09-24T09:46:08.291Z,9
2022-09-24T09:47:08.206Z,9
2022-09-24T09:48:08.188Z,9.1
2022-09-24T09:49:08.232Z,9.1
2022-09-24T09:50:08.208Z,9.2
2022-09-24T09:51:08.211Z,9.2
2022-09-24T09:52:08.203Z,9.4
2022-09-24T09:53:08.205Z,9.4
2022-09-24T09:55:08.190Z,9.3
2022-09-24T09:56:08.194Z,9.3
2022-09-24T09:57:08.212Z,9.4
2022-09-24T09:58:08.225Z,9.4
2022-09-24T09:59:08.185Z,9.3
2022-09-24T10:00:08.232Z,9.2
2022-09-24T10:01:08.202Z,9.3
2022-09-24T10:02:08.231Z,9.2
2022-09-24T10:03:08.295Z,9.5
2022-09-24T10:04:08.299Z,9.5
2022-09-24T10:05:08.210Z,9.6
2022-09-24T10:06:08.210Z,9.6
2022-09-24T10:07:08.206Z,9.6
2022-09-24T10:08:08.192Z,9.6
2022-09-24T10:09:08.206Z,9.6
2022-09-24T10:10:08.204Z,9.5
2022-09-24T10:11:08.193Z,9.6
2022-09-24T10:12:08.200Z,9.7
2022-09-24T10:13:08.215Z,9.7
2022-09-24T10:14:08.267Z,9.7
2022-09-24T10:15:08.196Z,9.7
2022-09-24T10:16:08.277Z,9.6
2022-09-24T10:17:08.240Z,9.6
2022-09-24T10:18:08.197Z,9.4
2022-09-24T10:19:08.202Z,9.5
2022-09-24T10:20:08.204Z,9.4
2022-09-24T10:21:08.211Z,9.4
2022-09-24T10:22:08.203Z,9.5
2022-09-24T10:23:08.199Z,9.4
2022-09-24T10:24:08.296Z,9.4
2022-09-24T10:25:08.202Z,9.5
2022-09-24T10:26:08.209Z,9.6
2022-09-24T10:27:08.192Z,9.5
2022-09-24T10:28:08.201Z,9.6
2022-09-24T10:29:02.659Z,9.6
2022-09-24T10:30:08.197Z,9.6
2022-09-24T10:31:08.280Z,9.5
2022-09-24T10:32:08.230Z,9.7
2022-09-24T10:33:08.213Z,9.7
2022-09-24T10:34:08.299Z,9.7
2022-09-24T10:35:08.209Z,9.6
2022-09-24T10:36:08.215Z,9.3
2022-09-24T10:37:11.019Z,9.2
2022-09-24T10:38:08.215Z,9.1
2022-09-24T10:39:08.238Z,9.2
2022-09-24T10:40:08.241Z,9.1
2022-09-24T10:43:08.242Z,9.3
2022-09-24T10:44:08.295Z,9.3
2022-09-24T10:45:08.207Z,9.3
2022-09-24T10:46:08.301Z,9.5
2022-09-24T10:47:08.217Z,9
2022-09-24T10:48:08.208Z,8.9
2022-09-24T10:49:08.200Z,9
2022-09-24T10:50:08.219Z,9.2
2022-09-24T10:51:08.208Z,9.4
2022-09-24T10:52:08.194Z,9.4
2022-09-24T10:53:08.198Z,9.1
2022-09-24T10:54:08.301Z,9.1
2022-09-24T10:55:08.205Z,9.1
2022-09-24T10:56:08.223Z,9
2022-09-24T10:57:08.231Z,9.1
2022-09-24T10:58:08.217Z,9.1
2022-09-24T10:59:08.205Z,9.2
2022-09-24T11:00:08.221Z,9.3
2022-09-24T11:01:08.226Z,9.2
2022-09-24T11:02:08.381Z,9.1
2022-09-24T11:03:08.311Z,9.2
2022-09-24T11:04:08.307Z,9.2
2022-09-24T11:05:08.225Z,9.3
2022-09-24T11:06:08.229Z,9.4
2022-09-24T11:07:08.213Z,9.3
2022-09-24T11:08:08.235Z,9.2
2022-09-24T11:09:08.238Z,9.3
2022-09-24T11:10:10.194Z,9.3
2022-09-24T11:11:08.199Z,9.4
2022-09-24T11:12:08.212Z,9.5
2022-09-24T11:13:08.218Z,9.2
2022-09-24T11:14:08.216Z,9.3
2022-09-24T11:15:08.220Z,9.4
2022-09-24T11:16:08.285Z,9.3
2022-09-24T11:17:08.214Z,9.2
2022-09-24T11:18:08.214Z,9.3
2022-09-24T11:19:08.210Z,9.2
2022-09-24T11:20:08.216Z,9.2
2022-09-24T11:21:08.223Z,9.2
2022-09-24T11:22:08.215Z,9.1
2022-09-24T11:23:08.220Z,9.3
2022-09-24T11:24:08.290Z,9.2
2022-09-24T11:25:08.237Z,9.1
2022-09-24T11:26:08.217Z,9
2022-09-24T11:27:08.208Z,9
2022-09-24T11:28:08.205Z,9
2022-09-24T11:29:08.200Z,9.3
2022-09-24T11:30:08.224Z,9.2
2022-09-24T11:31:08.295Z,9.3
2022-09-24T11:32:08.218Z,9.4
2022-09-24T11:33:08.248Z,9.1
2022-09-24T11:34:08.319Z,9.3
2022-09-24T11:35:08.213Z,9.1
2022-09-24T11:36:08.222Z,9.1
2022-09-24T11:37:08.232Z,9.1
2022-09-24T11:38:08.237Z,9.1
2022-09-24T11:39:08.212Z,9.2
2022-09-24T11:40:08.287Z,9.2
2022-09-24T11:41:08.230Z,9.2
2022-09-24T11:42:08.229Z,9.2
2022-09-24T11:43:08.221Z,9.2
2022-09-24T11:44:08.278Z,9.3
2022-09-24T11:45:08.217Z,9.2
2022-09-24T11:47:08.226Z,9.2
2022-09-24T11:48:08.231Z,9.1
2022-09-24T11:49:08.249Z,9.2
2022-09-24T11:50:08.259Z,9.2
2022-09-24T11:51:08.220Z,9.3
2022-09-24T11:52:08.222Z,9.3
2022-09-24T11:53:08.210Z,9.3
2022-09-24T11:54:08.329Z,9.3
2022-09-24T11:55:08.225Z,9.4
2022-09-24T11:56:12.934Z,9.4
2022-09-24T11:57:08.229Z,9.4
2022-09-24T11:58:08.242Z,9.4
2022-09-24T11:59:08.227Z,9.5
2022-09-24T12:00:08.238Z,9.4
2022-09-24T12:01:08.224Z,9.6
2022-09-24T12:02:08.319Z,9.6
2022-09-24T12:03:08.301Z,9.6
2022-09-24T12:04:08.341Z,9.5
2022-09-24T12:05:08.239Z,9.5
2022-09-24T12:06:08.220Z,9.6
2022-09-24T12:07:08.239Z,9.6
2022-09-24T12:08:08.217Z,9.5
2022-09-24T12:09:08.242Z,9.5
2022-09-24T12:10:08.225Z,9.6
2022-09-24T12:11:08.238Z,9.6
2022-09-24T12:12:08.226Z,9.6
2022-09-24T12:13:08.236Z,9.5
2022-09-24T12:14:08.259Z,9.6
2022-09-24T12:15:08.239Z,9.5
2022-09-24T12:16:08.366Z,9.6
2022-09-24T12:17:08.238Z,9.6
2022-09-24T12:18:08.230Z,9.6
2022-09-24T12:19:08.230Z,9.6
2022-09-24T12:20:08.334Z,9.7
2022-09-24T12:21:08.257Z,9.7
2022-09-24T12:22:08.224Z,9.6
2022-09-24T12:23:08.239Z,9.7
2022-09-24T12:24:08.224Z,9.6
2022-09-24T12:25:08.232Z,9.5
2022-09-24T12:26:08.257Z,9.4
2022-09-24T12:27:08.231Z,9.4
2022-09-24T12:28:08.224Z,9.4
2022-09-24T12:29:08.236Z,9.4
2022-09-24T12:30:08.228Z,9.4
2022-09-24T12:31:12.099Z,9.3
2022-09-24T12:32:08.235Z,9.3
2022-09-24T12:33:08.227Z,9.4
2022-09-24T12:34:08.288Z,9.5
2022-09-24T12:35:08.240Z,9.4
2022-09-24T12:36:08.234Z,9.4
2022-09-24T12:37:08.245Z,9.5
2022-09-24T12:38:08.232Z,9.4
2022-09-24T12:39:08.258Z,9.5
2022-09-24T12:40:08.322Z,9.5
2022-09-24T12:41:08.259Z,9.5
2022-09-24T12:42:08.212Z,9.5
2022-09-24T12:43:08.246Z,9.6
2022-09-24T12:44:08.277Z,9.7
2022-09-24T12:45:08.230Z,9.7
2022-09-24T12:46:08.260Z,9.6
2022-09-24T12:47:08.228Z,9.6
2022-09-24T12:48:08.230Z,9.4
2022-09-24T12:49:08.237Z,9.4
2022-09-24T12:50:08.440Z,9.6
2022-09-24T12:51:08.266Z,9.4
2022-09-24T12:52:08.241Z,9.5
2022-09-24T12:53:08.271Z,9.5
2022-09-24T12:54:08.325Z,9.5
2022-09-24T12:55:08.233Z,9.4
2022-09-24T12:56:08.235Z,9.5
2022-09-24T12:57:08.246Z,9.5
2022-09-24T12:58:08.238Z,9.4
2022-09-24T12:59:08.241Z,9.4
2022-09-24T13:00:08.290Z,9.6
2022-09-24T13:01:08.244Z,9.6
2022-09-24T13:02:08.369Z,9.6
2022-09-24T13:03:08.320Z,9.7
2022-09-24T13:04:08.336Z,9.7
2022-09-24T13:05:08.239Z,9.6
2022-09-24T13:06:08.219Z,9.6
2022-09-24T13:07:08.234Z,9.7
2022-09-24T13:08:08.240Z,9.7
2022-09-24T13:09:08.258Z,9.6
2022-09-24T13:10:08.328Z,9.7
2022-09-24T13:11:08.242Z,9.7
2022-09-24T13:12:08.238Z,9.7
2022-09-24T13:13:08.232Z,9.8
2022-09-24T13:14:08.352Z,9.8
2022-09-24T13:15:08.257Z,9.8
2022-09-24T13:16:08.272Z,9.6
2022-09-24T13:17:08.244Z,9.7
2022-09-24T13:18:08.241Z,9.8
2022-09-24T13:19:08.238Z,9.8
2022-09-24T13:20:08.236Z,9.7
2022-09-24T13:21:08.227Z,9.7
2022-09-24T13:22:08.308Z,9.7
2022-09-24T13:23:08.234Z,9.8
2022-09-24T13:24:08.282Z,9.8
2022-09-24T13:25:08.252Z,9.9
2022-09-24T13:26:08.246Z,9.9
2022-09-24T13:27:08.233Z,9.8
2022-09-24T13:28:08.247Z,9.9
2022-09-24T13:29:08.247Z,10
2022-09-24T13:30:08.244Z,10.1
2022-09-24T13:31:08.272Z,10.1
2022-09-24T13:32:08.251Z,10.1
2022-09-24T13:33:08.243Z,10
2022-09-24T13:34:08.334Z,9.9
2022-09-24T13:35:08.311Z,9.9
2022-09-24T13:36:08.251Z,9.8
2022-09-24T13:37:08.226Z,9.8
2022-09-24T13:38:08.241Z,9.8
2022-09-24T13:39:08.368Z,9.8
2022-09-24T13:40:08.268Z,9.9
2022-09-24T13:41:08.244Z,9.8
2022-09-24T13:42:08.242Z,9.8
2022-09-24T13:43:08.245Z,9.9
2022-09-24T13:44:08.304Z,9.9
2022-09-24T13:45:09.877Z,9.9
2022-09-24T13:46:08.365Z,9.9
2022-09-24T13:48:08.253Z,9.9
2022-09-24T13:49:08.352Z,9.9
2022-09-24T13:50:08.250Z,10
2022-09-24T13:51:08.308Z,10
2022-09-24T13:52:08.254Z,9.9
2022-09-24T13:53:08.348Z,9.9
2022-09-24T13:54:08.240Z,10.1
2022-09-24T13:55:08.244Z,10
2022-09-24T13:56:08.241Z,10
2022-09-24T13:57:08.244Z,9.9
2022-09-24T13:58:08.244Z,9.9
2022-09-24T13:59:08.315Z,9.9
2022-09-24T14:00:08.248Z,10.1